Time;durP1;ratioP1;P1;durP2;ratioP2;P2;SDS_P1;SDS_P2;PMS_P1;PMS_P2;Temp;Humidity;BMP_temperature;BMP_pressure;BME280_temperature;BME280_humidity;BME280_pressure;Samples;Min_cycle;Max_cycle;Signal;HPM_P1;HPM_P2
2023/10/21 00:02:07;;;;;;;18.10;9.93;;;12.00;99.90;;;;;;5100788;27;20039;-64
2023/10/21 00:04:33;;;;;;;16.55;9.48;;;11.90;99.90;;;;;;5105322;28;20040;-64
2023/10/21 00:06:59;;;;;;;13.10;8.43;;;11.90;99.90;;;;;;5100365;28;20413;-64
2023/10/21 00:09:24;;;;;;;15.80;9.45;;;11.90;99.90;;;;;;5097937;28;20036;-65
2023/10/21 00:11:51;;;;;;;13.30;8.07;;;11.90;99.90;;;;;;5101073;28;20508;-64
2023/10/21 00:14:17;;;;;;;19.08;8.73;;;11.80;99.90;;;;;;5098899;28;20097;-64
2023/10/21 00:16:43;;;;;;;16.70;9.30;;;11.80;99.90;;;;;;5102199;28;20047;-64
2023/10/21 00:19:10;;;;;;;11.73;7.68;;;11.90;99.90;;;;;;5099920;27;20142;-64
2023/10/21 00:21:36;;;;;;;19.90;9.15;;;11.80;99.90;;;;;;5133266;27;20048;-64
2023/10/21 00:24:03;;;;;;;12.13;8.00;;;11.80;99.90;;;;;;5104151;28;20062;-64
2023/10/21 00:26:28;;;;;;;10.95;7.88;;;11.70;99.90;;;;;;5100066;28;20541;-64
2023/10/21 00:28:54;;;;;;;13.15;7.32;;;11.70;99.90;;;;;;5102497;27;20047;-64
2023/10/21 00:31:20;;;;;;;10.20;7.45;;;11.60;99.90;;;;;;5102527;28;20167;-64
2023/10/21 00:33:45;;;;;;;14.18;7.60;;;11.70;99.90;;;;;;5102293;28;20039;-64
2023/10/21 00:36:11;;;;;;;11.40;7.13;;;11.60;99.90;;;;;;5104303;27;20035;-64
2023/10/21 00:38:37;;;;;;;9.00;6.55;;;11.60;99.90;;;;;;5100671;28;20478;-65
2023/10/21 00:41:02;;;;;;;10.40;6.47;;;11.60;99.90;;;;;;5107597;28;20502;-64
2023/10/21 00:43:35;;;;;;;14.38;6.80;;;11.60;99.90;;;;;;5101846;28;20067;-65
2023/10/21 00:46:15;;;;;;;13.38;6.85;;;11.50;99.90;;;;;;5110542;28;20429;-64
2023/10/21 00:48:41;;;;;;;10.25;6.50;;;11.50;99.90;;;;;;5102003;28;20098;-64
2023/10/21 00:51:09;;;;;;;12.65;6.90;;;11.50;99.90;;;;;;5098994;28;20031;-64
2023/10/21 00:53:35;;;;;;;11.07;6.30;;;11.50;99.90;;;;;;5100490;28;20089;-64
2023/10/21 00:56:02;;;;;;;9.18;6.15;;;11.50;99.90;;;;;;5107124;27;20083;-64
2023/10/21 00:58:30;;;;;;;12.30;6.82;;;11.40;99.90;;;;;;5103890;27;20032;-64
2023/10/21 01:00:57;;;;;;;11.68;6.53;;;11.40;99.90;;;;;;5131397;27;20040;-64
2023/10/21 01:03:26;;;;;;;10.40;6.22;;;11.40;99.90;;;;;;5104034;28;20040;-64
2023/10/21 01:05:52;;;;;;;12.18;7.25;;;11.40;99.90;;;;;;5104244;28;20039;-64
2023/10/21 01:08:18;;;;;;;10.15;6.25;;;11.40;99.90;;;;;;5101714;28;20032;-64
2023/10/21 01:10:44;;;;;;;12.13;6.95;;;11.40;99.90;;;;;;5101990;28;20097;-64
2023/10/21 01:13:09;;;;;;;17.05;7.43;;;11.40;99.90;;;;;;5135454;27;20046;-64
2023/10/21 01:15:36;;;;;;;14.73;7.88;;;11.40;99.90;;;;;;5099724;28;20284;-64
2023/10/21 01:18:08;;;;;;;12.13;7.28;;;11.30;99.90;;;;;;5101762;28;20814;-64
2023/10/21 01:20:35;;;;;;;13.55;7.20;;;11.30;99.90;;;;;;5104582;27;20088;-64
2023/10/21 01:23:01;;;;;;;13.15;7.82;;;11.30;99.90;;;;;;5103941;27;20048;-64
2023/10/21 01:25:27;;;;;;;14.40;8.50;;;11.20;99.90;;;;;;5137782;27;20062;-64
2023/10/21 01:27:56;;;;;;;12.63;8.40;;;11.30;99.90;;;;;;5104619;27;20079;-64
2023/10/21 01:30:22;;;;;;;14.95;8.95;;;11.30;99.90;;;;;;5135019;27;20066;-64
2023/10/21 01:32:49;;;;;;;18.30;9.65;;;11.20;99.90;;;;;;5106499;27;20111;-64
2023/10/21 01:35:15;;;;;;;13.32;8.85;;;11.20;99.90;;;;;;5105000;27;20074;-64
2023/10/21 01:37:42;;;;;;;17.35;9.77;;;11.20;99.90;;;;;;5107206;27;20058;-64
2023/10/21 01:40:10;;;;;;;17.38;10.43;;;11.10;99.90;;;;;;5104253;27;20425;-64
2023/10/21 01:42:41;;;;;;;16.13;10.90;;;11.10;99.90;;;;;;5105162;27;20048;-64
2023/10/21 01:45:09;;;;;;;21.08;10.77;;;11.10;99.90;;;;;;5107453;27;20035;-64
2023/10/21 01:47:35;;;;;;;21.42;11.07;;;11.10;99.90;;;;;;5104964;27;20040;-64
2023/10/21 01:50:05;;;;;;;21.33;11.65;;;11.10;99.90;;;;;;5106860;27;20039;-64
2023/10/21 01:52:35;;;;;;;20.55;11.90;;;11.10;99.90;;;;;;5105973;27;20051;-64
2023/10/21 01:55:06;;;;;;;20.88;12.20;;;11.10;99.90;;;;;;5119840;27;20051;-64
2023/10/21 01:57:32;;;;;;;22.20;12.40;;;11.10;99.90;;;;;;5135516;27;20040;-64
2023/10/21 02:00:04;;;;;;;25.50;13.20;;;11.10;99.90;;;;;;5103645;27;20086;-64
2023/10/21 02:02:30;;;;;;;21.48;12.73;;;11.10;99.90;;;;;;5108807;27;20040;-64
2023/10/21 02:04:55;;;;;;;25.92;13.38;;;11.10;99.90;;;;;;5106389;27;20439;-64
2023/10/21 02:07:21;;;;;;;22.73;12.27;;;11.10;99.90;;;;;;5110005;27;20032;-64
2023/10/21 02:09:48;;;;;;;21.70;12.90;;;11.10;99.90;;;;;;5106177;27;20085;-64
2023/10/21 02:12:13;;;;;;;23.20;13.20;;;11.10;99.90;;;;;;5105124;27;20048;-64
2023/10/21 02:14:39;;;;;;;22.75;11.77;;;11.10;99.90;;;;;;5107656;27;20358;-64
2023/10/21 02:17:05;;;;;;;22.77;12.32;;;11.10;99.90;;;;;;5104726;27;20576;-64
2023/10/21 02:19:31;;;;;;;21.80;13.07;;;11.10;99.90;;;;;;5104792;27;20054;-64
2023/10/21 02:21:58;;;;;;;24.30;13.07;;;11.10;99.90;;;;;;5105873;27;20054;-64
2023/10/21 02:24:23;;;;;;;24.63;13.68;;;11.20;99.90;;;;;;5108564;27;20892;-65
2023/10/21 02:26:52;;;;;;;24.77;12.75;;;11.10;99.90;;;;;;5106146;27;20043;-64
2023/10/21 02:29:18;;;;;;;24.38;12.55;;;11.10;99.90;;;;;;5103192;27;20040;-64
2023/10/21 02:31:43;;;;;;;19.42;11.43;;;11.10;99.90;;;;;;5103992;27;20059;-65
2023/10/21 02:34:09;;;;;;;21.73;12.48;;;11.10;99.90;;;;;;5106799;27;20046;-64
2023/10/21 02:36:35;;;;;;;24.88;12.75;;;11.00;99.90;;;;;;5107271;27;20027;-65
2023/10/21 02:39:01;;;;;;;19.15;11.48;;;11.00;99.90;;;;;;5104578;27;20043;-64
2023/10/21 02:41:26;;;;;;;20.02;12.27;;;11.00;99.90;;;;;;5104267;27;20123;-64
2023/10/21 02:43:52;;;;;;;19.05;12.73;;;11.00;99.90;;;;;;5104788;28;20031;-64
2023/10/21 02:46:18;;;;;;;21.60;13.13;;;11.10;99.90;;;;;;5102526;28;20035;-64
2023/10/21 02:48:45;;;;;;;21.33;12.02;;;10.90;99.90;;;;;;5103368;27;20074;-64
2023/10/21 02:51:17;;;;;;;20.63;12.10;;;11.00;99.90;;;;;;5104354;27;20032;-64
2023/10/21 02:53:44;;;;;;;17.77;11.10;;;11.00;99.90;;;;;;5105487;27;20086;-64
2023/10/21 02:56:11;;;;;;;17.75;11.43;;;10.90;99.90;;;;;;5103488;27;20039;-64
2023/10/21 02:58:37;;;;;;;22.85;12.52;;;10.90;99.90;;;;;;5104360;27;20031;-64
2023/10/21 03:01:12;;;;;;;14.93;10.90;;;10.90;99.90;;;;;;5105110;27;20750;-64
2023/10/21 03:03:37;;;;;;;18.20;11.60;;;10.90;99.90;;;;;;5102182;27;20047;-64
2023/10/21 03:06:03;;;;;;;15.93;11.13;;;10.80;99.90;;;;;;5134000;27;20074;-64
2023/10/21 03:08:29;;;;;;;18.63;11.65;;;10.80;99.90;;;;;;5116537;27;20039;-64
2023/10/21 03:10:55;;;;;;;20.58;11.27;;;10.70;99.90;;;;;;5132601;27;21678;-64
2023/10/21 03:13:21;;;;;;;19.30;11.10;;;10.70;99.90;;;;;;5134016;27;20116;-64
2023/10/21 03:15:46;;;;;;;17.55;10.57;;;10.80;99.90;;;;;;5105641;27;20469;-64
2023/10/21 03:18:12;;;;;;;19.42;11.00;;;10.70;99.90;;;;;;5103598;27;20039;-64
2023/10/21 03:20:38;;;;;;;16.83;9.93;;;10.70;99.90;;;;;;5103188;27;20178;-64
2023/10/21 03:23:04;;;;;;;17.73;10.45;;;10.70;99.90;;;;;;5105160;27;20046;-64
2023/10/21 03:25:30;;;;;;;17.02;10.32;;;10.70;99.90;;;;;;5120565;27;20054;-64
2023/10/21 03:27:56;;;;;;;18.25;10.57;;;10.70;99.90;;;;;;5103782;27;20172;-64
2023/10/21 03:30:22;;;;;;;13.98;9.77;;;10.60;99.90;;;;;;5105987;27;20047;-64
2023/10/21 03:32:47;;;;;;;18.15;10.82;;;10.70;99.90;;;;;;5104057;27;20388;-64
2023/10/21 03:35:13;;;;;;;13.95;9.18;;;10.60;99.90;;;;;;5103061;27;20122;-64
2023/10/21 03:37:38;;;;;;;15.32;10.55;;;10.60;99.90;;;;;;5106840;27;20094;-64
2023/10/21 03:40:05;;;;;;;13.35;9.25;;;10.60;99.90;;;;;;5104441;27;20088;-64
2023/10/21 03:42:31;;;;;;;18.25;10.25;;;10.60;99.90;;;;;;5102722;27;20044;-64
2023/10/21 03:44:57;;;;;;;18.35;10.70;;;10.60;99.90;;;;;;5106383;27;20035;-64
2023/10/21 03:47:22;;;;;;;18.17;10.32;;;10.50;99.90;;;;;;5101184;27;20043;-64
2023/10/21 03:49:48;;;;;;;16.42;10.50;;;10.60;99.90;;;;;;5105069;27;20134;-64
2023/10/21 03:52:14;;;;;;;15.32;10.82;;;10.60;99.90;;;;;;5100070;27;20047;-64
2023/10/21 03:54:39;;;;;;;19.90;10.75;;;10.60;99.90;;;;;;5134828;27;20478;-64
2023/10/21 03:57:05;;;;;;;20.20;11.80;;;10.50;99.90;;;;;;5104087;27;20058;-64
2023/10/21 03:59:31;;;;;;;22.23;12.65;;;10.50;99.90;;;;;;5089370;28;20121;-64
2023/10/21 04:01:57;;;;;;;18.58;11.38;;;10.40;99.90;;;;;;5104285;27;20424;-64
2023/10/21 04:04:23;;;;;;;19.25;11.32;;;10.40;99.90;;;;;;5104050;27;20044;-64
2023/10/21 04:06:49;;;;;;;20.45;12.73;;;10.30;99.90;;;;;;5101169;28;21632;-64
2023/10/21 04:09:14;;;;;;;18.33;12.07;;;10.40;99.90;;;;;;5106006;27;20061;-64
2023/10/21 04:11:41;;;;;;;21.10;12.95;;;10.30;99.90;;;;;;5102067;27;20039;-64
2023/10/21 04:14:07;;;;;;;19.17;12.55;;;10.30;99.90;;;;;;5135193;27;20039;-64
2023/10/21 04:16:33;;;;;;;19.63;13.32;;;10.40;99.90;;;;;;5103594;27;20112;-64
2023/10/21 04:18:58;;;;;;;18.58;12.02;;;10.30;99.90;;;;;;5083506;27;20057;-64
2023/10/21 04:21:25;;;;;;;16.83;12.65;;;10.30;99.90;;;;;;5105029;27;20383;-64
2023/10/21 04:23:51;;;;;;;18.48;12.75;;;10.30;99.90;;;;;;5103805;27;20040;-64
2023/10/21 04:26:16;;;;;;;20.15;12.05;;;10.20;99.90;;;;;;5101025;27;20036;-64
2023/10/21 04:28:42;;;;;;;22.38;13.20;;;10.20;99.90;;;;;;5102208;27;20032;-64
2023/10/21 04:31:08;;;;;;;17.85;12.40;;;10.20;99.90;;;;;;5104039;27;20044;-64
2023/10/21 04:33:34;;;;;;;20.27;12.88;;;10.20;99.90;;;;;;5104110;27;20036;-64
2023/10/21 04:36:00;;;;;;;19.20;12.55;;;10.20;99.90;;;;;;5133457;27;20074;-64
2023/10/21 04:38:26;;;;;;;22.55;12.52;;;10.20;99.90;;;;;;5102608;27;20063;-64
2023/10/21 04:40:53;;;;;;;18.50;12.68;;;10.10;99.90;;;;;;5098596;28;20577;-64
2023/10/21 04:43:18;;;;;;;18.10;12.73;;;10.20;99.90;;;;;;5106331;28;20541;-64
2023/10/21 04:45:44;;;;;;;18.08;12.80;;;10.20;99.90;;;;;;5132651;27;20040;-64
2023/10/21 04:48:10;;;;;;;17.63;12.18;;;10.10;99.90;;;;;;5130490;27;20058;-64
2023/10/21 04:50:36;;;;;;;20.55;13.00;;;10.20;99.90;;;;;;5100147;28;20039;-64
2023/10/21 04:53:02;;;;;;;16.95;11.85;;;10.20;99.90;;;;;;5130945;27;20042;-65
2023/10/21 04:55:28;;;;;;;22.65;12.77;;;10.10;99.90;;;;;;5107632;27;20046;-64
2023/10/21 04:57:53;;;;;;;17.60;12.48;;;10.10;99.90;;;;;;5106618;27;20116;-64
2023/10/21 05:00:19;;;;;;;18.75;11.38;;;10.10;99.90;;;;;;5134253;27;20071;-64
2023/10/21 05:02:44;;;;;;;16.77;11.77;;;10.10;99.90;;;;;;5101374;27;20200;-64
2023/10/21 05:05:12;;;;;;;19.48;12.23;;;10.20;99.90;;;;;;5106464;27;20031;-64
2023/10/21 05:07:38;;;;;;;19.25;11.93;;;10.20;99.90;;;;;;5105105;28;20084;-64
2023/10/21 05:10:04;;;;;;;19.27;12.43;;;10.20;99.90;;;;;;5109238;27;20043;-64
2023/10/21 05:12:30;;;;;;;15.30;10.57;;;10.10;99.90;;;;;;5105352;27;20517;-64
2023/10/21 05:14:55;;;;;;;16.35;12.52;;;10.10;99.90;;;;;;5106201;28;20122;-64
2023/10/21 05:17:21;;;;;;;18.13;11.68;;;10.20;99.90;;;;;;5120078;27;20071;-64
2023/10/21 05:19:47;;;;;;;18.52;11.68;;;10.20;99.90;;;;;;5103516;28;20066;-64
2023/10/21 05:22:13;;;;;;;19.77;12.40;;;10.20;99.90;;;;;;5104145;28;20040;-64
2023/10/21 05:24:38;;;;;;;18.15;11.57;;;10.20;99.90;;;;;;5106741;27;20043;-64
2023/10/21 05:27:04;;;;;;;16.50;11.55;;;10.20;99.90;;;;;;5135449;27;20074;-64
2023/10/21 05:29:30;;;;;;;14.65;10.55;;;10.20;99.90;;;;;;5104262;28;20036;-64
2023/10/21 05:31:55;;;;;;;14.68;10.30;;;10.30;99.90;;;;;;5102561;27;20101;-64
2023/10/21 05:34:21;;;;;;;17.90;10.45;;;10.20;99.90;;;;;;5105065;28;20078;-64
2023/10/21 05:36:47;;;;;;;13.73;10.00;;;10.20;99.90;;;;;;5121934;27;20039;-64
2023/10/21 05:39:13;;;;;;;13.13;10.25;;;10.20;99.90;;;;;;5104488;27;20070;-64
2023/10/21 05:41:40;;;;;;;15.77;10.27;;;10.20;99.90;;;;;;5102182;27;20047;-64
2023/10/21 05:44:07;;;;;;;16.10;10.45;;;10.20;99.90;;;;;;5105707;27;20037;-64
2023/10/21 05:46:33;;;;;;;17.95;10.27;;;10.30;99.90;;;;;;5102784;27;20043;-64
2023/10/21 05:48:58;;;;;;;18.00;10.40;;;10.40;99.90;;;;;;5100310;27;20556;-64
2023/10/21 05:51:24;;;;;;;14.73;10.52;;;10.40;99.90;;;;;;5105460;28;20130;-64
2023/10/21 05:53:51;;;;;;;14.70;10.60;;;10.40;99.90;;;;;;5104657;27;20032;-64
2023/10/21 05:56:17;;;;;;;14.70;9.77;;;10.50;99.90;;;;;;5105221;27;20136;-64
2023/10/21 05:58:43;;;;;;;17.98;11.07;;;10.50;99.90;;;;;;5104284;27;20569;-64
2023/10/21 06:01:10;;;;;;;15.65;10.38;;;10.60;99.90;;;;;;5135493;27;20405;-64
2023/10/21 06:03:36;;;;;;;15.85;10.32;;;10.60;99.90;;;;;;5104988;27;20130;-64
2023/10/21 06:06:02;;;;;;;15.10;10.63;;;10.60;99.90;;;;;;5106557;28;20082;-64
2023/10/21 06:08:29;;;;;;;16.05;11.40;;;10.60;99.90;;;;;;5130814;27;20043;-64
2023/10/21 06:10:56;;;;;;;17.08;10.93;;;10.70;99.90;;;;;;5103751;28;20482;-64
2023/10/21 06:13:22;;;;;;;15.93;11.25;;;10.70;99.90;;;;;;5119997;27;20546;-64
2023/10/21 06:15:48;;;;;;;16.00;11.02;;;10.80;99.90;;;;;;5102353;28;20075;-64
2023/10/21 06:18:14;;;;;;;17.98;11.27;;;10.80;99.90;;;;;;5104489;28;20130;-64
2023/10/21 06:20:40;;;;;;;14.95;10.80;;;10.80;99.90;;;;;;5105700;28;20123;-64
2023/10/21 06:23:06;;;;;;;18.42;11.30;;;10.80;99.90;;;;;;5104873;27;20514;-64
2023/10/21 06:25:32;;;;;;;15.00;11.00;;;10.80;99.90;;;;;;5105285;28;20078;-64
2023/10/21 06:27:58;;;;;;;16.50;11.10;;;10.90;99.90;;;;;;5101622;27;20044;-64
2023/10/21 06:30:24;;;;;;;14.68;10.85;;;11.00;99.90;;;;;;5134575;27;20036;-64
2023/10/21 06:32:49;;;;;;;16.27;10.38;;;11.00;99.90;;;;;;5133064;27;20089;-64
2023/10/21 06:35:15;;;;;;;16.50;10.95;;;11.10;99.90;;;;;;5105064;27;20096;-64
2023/10/21 06:37:40;;;;;;;19.02;10.75;;;11.10;99.90;;;;;;5100549;27;20050;-64
2023/10/21 06:40:06;;;;;;;14.52;10.20;;;11.20;99.90;;;;;;5098368;28;20130;-64
2023/10/21 06:42:33;;;;;;;15.98;11.60;;;11.20;99.90;;;;;;5102417;27;20050;-65
2023/10/21 06:44:58;;;;;;;14.30;10.70;;;11.30;99.90;;;;;;5103470;27;20120;-64
2023/10/21 06:47:24;;;;;;;15.10;11.00;;;11.30;99.90;;;;;;5116163;27;20106;-64
2023/10/21 06:49:50;;;;;;;13.82;10.82;;;11.30;99.90;;;;;;5102554;28;20035;-64
2023/10/21 06:52:17;;;;;;;16.30;11.10;;;11.30;99.90;;;;;;5102122;27;20125;-64
2023/10/21 06:54:44;;;;;;;17.30;11.02;;;11.40;99.90;;;;;;5103430;28;20386;-65
2023/10/21 06:57:09;;;;;;;17.50;11.55;;;11.40;99.90;;;;;;5136100;27;20051;-65
2023/10/21 06:59:35;;;;;;;16.35;10.65;;;11.50;99.90;;;;;;5102399;27;20047;-65
2023/10/21 07:02:01;;;;;;;14.13;10.40;;;11.50;99.90;;;;;;5134087;27;20093;-64
2023/10/21 07:04:26;;;;;;;15.32;10.63;;;11.60;99.90;;;;;;5104181;28;20082;-64
2023/10/21 07:06:52;;;;;;;14.75;10.68;;;11.60;99.90;;;;;;5102957;28;20107;-64
2023/10/21 07:09:17;;;;;;;14.23;11.50;;;11.70;99.90;;;;;;5103109;28;20028;-65
2023/10/21 07:11:43;;;;;;;15.50;11.15;;;11.70;99.90;;;;;;5136230;27;20071;-64
2023/10/21 07:14:09;;;;;;;15.10;11.27;;;11.80;99.90;;;;;;5097395;27;20046;-65
2023/10/21 07:16:34;;;;;;;16.10;11.55;;;11.80;99.90;;;;;;5131957;27;20520;-65
2023/10/21 07:19:00;;;;;;;21.98;11.05;;;11.90;99.90;;;;;;5098844;28;20035;-65
2023/10/21 07:21:26;;;;;;;19.27;11.77;;;11.90;99.90;;;;;;5101573;27;20502;-65
2023/10/21 07:23:51;;;;;;;19.83;11.50;;;11.90;99.90;;;;;;5101848;27;20035;-65
2023/10/21 07:26:17;;;;;;;13.35;11.02;;;12.00;99.90;;;;;;5100244;28;20044;-65
2023/10/21 07:28:42;;;;;;;19.15;11.60;;;12.00;99.90;;;;;;5100630;28;20525;-65
2023/10/21 07:31:08;;;;;;;12.57;9.57;;;12.00;99.90;;;;;;5134453;27;20043;-64
2023/10/21 07:33:35;;;;;;;17.60;10.70;;;12.10;99.90;;;;;;5101486;28;20036;-65
2023/10/21 07:36:00;;;;;;;13.68;10.55;;;12.10;99.90;;;;;;5103712;28;20040;-65
2023/10/21 07:38:26;;;;;;;13.00;10.05;;;12.10;99.90;;;;;;5121280;27;20043;-65
2023/10/21 07:40:52;;;;;;;14.02;10.95;;;12.10;99.90;;;;;;5096755;28;20048;-65
2023/10/21 07:43:18;;;;;;;13.90;10.43;;;12.10;99.90;;;;;;5101181;28;20039;-65
2023/10/21 07:45:44;;;;;;;15.25;10.77;;;12.20;99.90;;;;;;5102714;28;20123;-65
2023/10/21 07:48:10;;;;;;;17.17;11.38;;;12.20;99.90;;;;;;5102238;28;20422;-65
2023/10/21 07:50:37;;;;;;;12.55;10.48;;;12.20;99.90;;;;;;5100321;28;20043;-65
2023/10/21 07:53:03;;;;;;;13.20;10.18;;;12.30;99.90;;;;;;5132097;27;20062;-65
2023/10/21 07:55:29;;;;;;;14.60;10.50;;;12.30;99.90;;;;;;5102738;28;20131;-65
2023/10/21 07:57:55;;;;;;;14.80;10.98;;;12.40;99.90;;;;;;5102153;28;20774;-65
2023/10/21 08:00:21;;;;;;;13.45;10.20;;;12.50;99.90;;;;;;5099812;28;20072;-65
2023/10/21 08:02:46;;;;;;;13.88;9.90;;;12.50;99.90;;;;;;5132068;27;20048;-65
2023/10/21 08:05:13;;;;;;;13.35;10.23;;;12.60;99.90;;;;;;5095959;28;20040;-65
2023/10/21 08:07:38;;;;;;;11.45;9.77;;;12.70;99.90;;;;;;5099908;28;20040;-65
2023/10/21 08:10:05;;;;;;;11.82;9.13;;;12.70;99.90;;;;;;5103679;28;20482;-65
2023/10/21 08:12:35;;;;;;;12.07;9.07;;;12.70;99.90;;;;;;5098940;28;20051;-65
2023/10/21 08:15:05;;;;;;;16.10;8.55;;;12.80;99.90;;;;;;5102575;28;20040;-65
2023/10/21 08:17:31;;;;;;;12.32;8.32;;;12.90;99.90;;;;;;5101147;28;20105;-65
2023/10/21 08:19:56;;;;;;;10.70;7.45;;;13.00;99.90;;;;;;5102754;28;20035;-65
2023/10/21 08:22:22;;;;;;;9.65;7.25;;;13.10;99.90;;;;;;5101741;28;20039;-65
2023/10/21 08:24:48;;;;;;;11.93;8.05;;;13.20;99.90;;;;;;5102959;28;20051;-64
2023/10/21 08:27:14;;;;;;;10.43;7.30;;;13.20;99.90;;;;;;5100216;28;21589;-65
2023/10/21 08:29:39;;;;;;;9.48;7.03;;;13.30;99.90;;;;;;5095918;28;20486;-65
2023/10/21 08:32:05;;;;;;;8.25;6.00;;;13.40;99.90;;;;;;5101581;28;20479;-65
2023/10/21 08:34:32;;;;;;;13.90;6.78;;;13.40;99.90;;;;;;5101324;28;20126;-65
2023/10/21 08:36:57;;;;;;;9.00;6.30;;;13.50;99.90;;;;;;5103390;28;20104;-65
2023/10/21 08:39:23;;;;;;;14.50;6.13;;;13.50;99.90;;;;;;5131104;27;20032;-65
2023/10/21 08:41:49;;;;;;;11.45;6.13;;;13.50;99.90;;;;;;5101067;28;20035;-65
2023/10/21 08:44:18;;;;;;;7.43;5.57;;;13.60;99.90;;;;;;5099419;28;20047;-65
2023/10/21 08:46:44;;;;;;;9.32;5.50;;;13.70;99.90;;;;;;5132617;27;20044;-65
2023/10/21 08:49:12;;;;;;;9.52;5.00;;;13.70;99.90;;;;;;5099875;28;20052;-65
2023/10/21 08:51:37;;;;;;;6.78;4.95;;;13.70;99.90;;;;;;5099393;28;20126;-65
2023/10/21 08:54:04;;;;;;;9.55;5.07;;;13.80;99.90;;;;;;5100437;28;20138;-65
2023/10/21 08:56:34;;;;;;;9.68;5.43;;;13.90;99.90;;;;;;5102195;28;20036;-65
2023/10/21 08:59:01;;;;;;;9.73;5.20;;;13.90;99.90;;;;;;5098286;28;20478;-65
2023/10/21 09:01:27;;;;;;;7.13;4.13;;;14.00;99.90;;;;;;5102083;28;20040;-65
2023/10/21 09:03:53;;;;;;;9.15;4.38;;;14.00;99.90;;;;;;5100161;28;20040;-65
2023/10/21 09:06:19;;;;;;;8.80;3.42;;;14.10;99.90;;;;;;5099208;28;20131;-65
2023/10/21 09:08:47;;;;;;;9.40;4.38;;;14.10;99.90;;;;;;5103631;28;20123;-65
2023/10/21 09:11:25;;;;;;;5.88;3.95;;;14.20;99.90;;;;;;5100164;28;20038;-65
2023/10/21 09:13:52;;;;;;;7.55;3.45;;;14.30;99.90;;;;;;5131414;27;20485;-65
2023/10/21 09:16:19;;;;;;;6.72;3.25;;;14.30;99.90;;;;;;5103935;28;20534;-65
2023/10/21 09:19:04;;;;;;;10.32;3.83;;;14.30;99.90;;;;;;5098355;28;20164;-65
2023/10/21 09:21:43;;;;;;;7.72;3.63;;;14.40;99.90;;;;;;5097842;28;20562;-65
2023/10/21 09:24:20;;;;;;;8.23;3.30;;;14.40;99.90;;;;;;5099679;28;20411;-65
2023/10/21 09:26:47;;;;;;;7.00;3.25;;;14.40;99.90;;;;;;5100760;28;20477;-65
2023/10/21 09:29:14;;;;;;;6.60;3.20;;;14.40;99.90;;;;;;5099537;28;20036;-65
2023/10/21 09:31:48;;;;;;;5.20;2.50;;;14.40;99.90;;;;;;5104855;28;20039;-65
2023/10/21 09:34:31;;;;;;;7.75;2.58;;;14.30;99.90;;;;;;5100150;28;20047;-64
2023/10/21 09:37:04;;;;;;;6.90;2.85;;;14.30;99.90;;;;;;5099304;28;20052;-65
2023/10/21 09:39:36;;;;;;;4.57;2.20;;;14.40;99.90;;;;;;5102467;28;20443;-65
2023/10/21 09:42:03;;;;;;;4.22;1.73;;;14.40;99.90;;;;;;5103465;28;20036;-65
2023/10/21 09:44:30;;;;;;;3.22;2.28;;;14.30;99.90;;;;;;5104618;28;20039;-65
2023/10/21 09:46:57;;;;;;;3.42;1.58;;;14.30;99.90;;;;;;5104651;28;20032;-65
2023/10/21 09:49:25;;;;;;;7.13;2.00;;;14.20;99.90;;;;;;5102624;27;20126;-65
2023/10/21 09:52:05;;;;;;;2.65;1.77;;;14.30;99.90;;;;;;5104293;28;20039;-65
2023/10/21 09:54:43;;;;;;;5.90;2.03;;;14.30;99.90;;;;;;5105452;27;20058;-65
2023/10/21 09:57:11;;;;;;;3.28;1.55;;;14.20;99.90;;;;;;5105748;27;20055;-65
2023/10/21 09:59:37;;;;;;;5.55;1.45;;;14.20;99.90;;;;;;5104417;27;20424;-65
2023/10/21 10:02:04;;;;;;;3.13;1.55;;;14.20;99.90;;;;;;5106923;28;20130;-65
2023/10/21 10:04:32;;;;;;;6.47;1.55;;;14.20;99.90;;;;;;5105223;27;20070;-65
2023/10/21 10:06:59;;;;;;;1.90;1.30;;;14.20;99.90;;;;;;5103827;27;20098;-65
2023/10/21 10:09:28;;;;;;;5.25;1.08;;;14.20;99.90;;;;;;5104103;28;20039;-65
2023/10/21 10:11:59;;;;;;;3.17;0.98;;;14.20;99.90;;;;;;5103052;28;20051;-65
2023/10/21 10:14:28;;;;;;;3.60;0.68;;;14.20;99.90;;;;;;5105238;27;20051;-65
2023/10/21 10:16:54;;;;;;;1.42;0.70;;;14.20;99.90;;;;;;5102761;27;20779;-65
2023/10/21 10:19:40;;;;;;;3.08;0.90;;;14.40;99.90;;;;;;5103385;28;20043;-65
2023/10/21 10:22:20;;;;;;;2.95;0.88;;;14.20;99.90;;;;;;5102180;27;20093;-65
2023/10/21 10:24:56;;;;;;;2.72;0.70;;;14.20;99.90;;;;;;5103992;28;20058;-65
2023/10/21 10:27:42;;;;;;;0.85;0.50;;;14.20;99.90;;;;;;5103568;27;20044;-65
2023/10/21 10:30:19;;;;;;;1.13;0.53;;;14.20;99.90;;;;;;5103223;28;20071;-65
2023/10/21 10:32:47;;;;;;;1.27;0.57;;;14.20;99.90;;;;;;5101996;28;20890;-65
2023/10/21 10:35:28;;;;;;;1.00;0.40;;;14.20;99.90;;;;;;5103441;28;20126;-65
2023/10/21 10:37:53;;;;;;;0.75;0.30;;;14.10;99.90;;;;;;5133053;27;20048;-65
2023/10/21 10:40:30;;;;;;;1.88;0.32;;;14.00;99.90;;;;;;5083503;28;20043;-65
2023/10/21 10:42:56;;;;;;;2.35;0.30;;;14.00;99.90;;;;;;5100096;28;20902;-65
2023/10/21 10:45:22;;;;;;;0.90;0.30;;;14.10;99.90;;;;;;5103935;28;20027;-65
2023/10/21 10:48:02;;;;;;;0.95;0.30;;;14.10;99.90;;;;;;5134500;27;20057;-65
2023/10/21 10:50:29;;;;;;;2.17;0.20;;;14.20;99.90;;;;;;5136542;27;20043;-65
2023/10/21 10:52:55;;;;;;;2.33;0.30;;;14.40;99.90;;;;;;5133963;27;20447;-65
2023/10/21 10:55:21;;;;;;;3.28;0.63;;;14.50;99.90;;;;;;5103072;28;20040;-65
2023/10/21 10:57:48;;;;;;;1.80;0.20;;;14.60;99.90;;;;;;5103109;28;20134;-65
2023/10/21 11:00:21;;;;;;;0.90;0.22;;;14.60;99.90;;;;;;5099912;28;20040;-65
2023/10/21 11:02:49;;;;;;;0.57;0.30;;;14.80;99.90;;;;;;5103944;28;20043;-65
2023/10/21 11:05:20;;;;;;;0.45;0.10;;;15.00;99.90;;;;;;5100947;27;20039;-65
2023/10/21 11:07:47;;;;;;;0.43;0.20;;;15.00;99.90;;;;;;5101095;28;20036;-65
2023/10/21 11:10:18;;;;;;;1.80;0.60;;;14.90;99.90;;;;;;5099079;27;20093;-65
2023/10/21 11:12:44;;;;;;;1.42;0.20;;;14.90;99.90;;;;;;5103116;28;20035;-65
2023/10/21 11:15:12;;;;;;;0.73;0.30;;;14.80;99.90;;;;;;5099683;27;20505;-65
2023/10/21 11:17:39;;;;;;;1.27;0.30;;;14.80;99.90;;;;;;5102837;28;20044;-65
2023/10/21 11:20:07;;;;;;;0.60;0.30;;;14.70;99.90;;;;;;5133505;27;20493;-65
2023/10/21 11:22:33;;;;;;;0.85;0.28;;;14.70;99.90;;;;;;5100660;28;20063;-65
2023/10/21 11:24:59;;;;;;;2.47;0.30;;;14.70;99.90;;;;;;5136557;27;20355;-65
2023/10/21 11:27:25;;;;;;;0.85;0.20;;;14.70;99.90;;;;;;5105098;27;20039;-65
2023/10/21 11:29:52;;;;;;;0.95;0.10;;;14.70;99.90;;;;;;5100519;27;20379;-65
2023/10/21 11:32:27;;;;;;;2.40;0.20;;;14.70;99.90;;;;;;5103521;27;20090;-66
2023/10/21 11:34:54;;;;;;;1.88;0.30;;;14.70;99.90;;;;;;5101695;28;20048;-66
2023/10/21 11:37:19;;;;;;;0.95;0.20;;;14.60;99.90;;;;;;5096126;28;20052;-65
2023/10/21 11:39:48;;;;;;;1.45;0.30;;;14.60;99.90;;;;;;5096625;28;20050;-65
2023/10/21 11:42:17;;;;;;;1.48;0.20;;;14.50;99.90;;;;;;5097954;28;20044;-65
2023/10/21 11:45:03;;;;;;;1.92;0.38;;;14.50;99.90;;;;;;5101241;28;20063;-65
2023/10/21 11:47:30;;;;;;;;;;;14.40;99.90;;;;;;5099377;28;20347;-65
2023/10/21 11:49:57;;;;;;;1.98;0.20;;;14.30;99.90;;;;;;5098273;27;19923;-65
2023/10/21 11:52:25;;;;;;;1.48;0.10;;;14.30;99.90;;;;;;5098213;28;20078;-65
2023/10/21 12:06:07;;;;;;;1.63;0.10;;;14.20;99.90;;;;;;5099039;28;20051;-65
2023/10/21 12:14:40;;;;;;;2.38;0.20;;;14.40;99.90;;;;;;5098727;28;20047;-65
2023/10/21 12:17:01;;;;;;;3.17;0.25;;;14.40;99.90;;;;;;5094753;27;20691;-65
2023/10/21 12:35:53;;;;;;;1.08;0.28;;;15.20;99.90;;;;;;5133381;27;20513;-65
2023/10/21 12:38:24;;;;;;;1.38;0.10;;;15.20;99.90;;;;;;5128749;27;20458;-65
2023/10/21 12:43:35;;;;;;;1.52;0.20;;;15.00;99.90;;;;;;5102489;28;20047;-65
2023/10/21 12:46:17;;;;;;;1.33;0.20;;;15.00;99.90;;;;;;5131085;27;20572;-65
2023/10/21 12:48:52;;;;;;;0.98;0.20;;;15.00;99.90;;;;;;5096682;28;20050;-65
2023/10/21 12:51:24;;;;;;;1.33;0.20;;;15.00;99.90;;;;;;5099928;28;20081;-65
2023/10/21 12:53:50;;;;;;;3.50;0.50;;;15.10;99.90;;;;;;5131724;27;20071;-65
2023/10/21 12:56:16;;;;;;;2.97;0.40;;;15.00;99.90;;;;;;5100940;28;20414;-65
2023/10/21 12:58:42;;;;;;;4.57;0.20;;;15.00;99.90;;;;;;5096632;28;20036;-65
2023/10/21 13:01:12;;;;;;;0.70;0.20;;;15.00;99.90;;;;;;5098327;28;20135;-65
2023/10/21 13:03:42;;;;;;;2.15;0.30;;;14.90;99.90;;;;;;5098712;28;20031;-65
2023/10/21 13:06:09;;;;;;;0.90;0.32;;;14.90;99.90;;;;;;5097533;28;20032;-65
2023/10/21 13:08:36;;;;;;;3.03;0.30;;;14.90;99.90;;;;;;5098904;28;20046;-65
2023/10/21 13:11:02;;;;;;;1.15;0.10;;;14.90;99.90;;;;;;5095650;28;20122;-65
2023/10/21 13:13:28;;;;;;;5.97;0.20;;;14.90;99.90;;;;;;5114710;27;20054;-65